sensor_id;sensor_type;location;lat;lon;timestamp;P1;durP1;ratioP1;P2;durP2;ratioP2
42110;SDS011;27766;52.174;5.456;2022-11-12T00:01:01;17.38;;;13.88;;
42110;SDS011;27766;52.174;5.456;2022-11-12T00:03:28;17.10;;;12.80;;
42110;SDS011;27766;52.174;5.456;2022-11-12T00:05:55;15.55;;;12.73;;
42110;SDS011;27766;52.174;5.456;2022-11-12T00:08:22;19.60;;;13.50;;
42110;SDS011;27766;52.174;5.456;2022-11-12T00:10:50;17.95;;;13.05;;
42110;SDS011;27766;52.174;5.456;2022-11-12T00:13:17;18.42;;;14.18;;
42110;SDS011;27766;52.174;5.456;2022-11-12T00:15:44;17.73;;;13.18;;
42110;SDS011;27766;52.174;5.456;2022-11-12T00:18:12;17.55;;;12.88;;
42110;SDS011;27766;52.174;5.456;2022-11-12T00:20:40;16.10;;;12.32;;
42110;SDS011;27766;52.174;5.456;2022-11-12T00:23:07;18.42;;;13.13;;
42110;SDS011;27766;52.174;5.456;2022-11-12T00:25:34;14.02;;;12.02;;
42110;SDS011;27766;52.174;5.456;2022-11-12T00:28:02;17.90;;;12.98;;
42110;SDS011;27766;52.174;5.456;2022-11-12T00:30:30;19.10;;;12.88;;
42110;SDS011;27766;52.174;5.456;2022-11-12T00:33:00;16.52;;;12.10;;
42110;SDS011;27766;52.174;5.456;2022-11-12T00:35:29;15.88;;;11.82;;
42110;SDS011;27766;52.174;5.456;2022-11-12T00:37:57;17.98;;;12.23;;
42110;SDS011;27766;52.174;5.456;2022-11-12T00:40:25;17.52;;;11.73;;
42110;SDS011;27766;52.174;5.456;2022-11-12T00:42:52;14.60;;;11.90;;
42110;SDS011;27766;52.174;5.456;2022-11-12T00:45:19;19.08;;;12.32;;
42110;SDS011;27766;52.174;5.456;2022-11-12T00:47:47;17.83;;;13.38;;
42110;SDS011;27766;52.174;5.456;2022-11-12T00:50:14;18.05;;;12.90;;
42110;SDS011;27766;52.174;5.456;2022-11-12T00:52:42;16.85;;;12.68;;
42110;SDS011;27766;52.174;5.456;2022-11-12T00:55:09;19.58;;;13.70;;
42110;SDS011;27766;52.174;5.456;2022-11-12T00:57:36;16.77;;;12.40;;
42110;SDS011;27766;52.174;5.456;2022-11-12T01:00:04;19.50;;;15.30;;
42110;SDS011;27766;52.174;5.456;2022-11-12T01:02:32;20.85;;;14.50;;
42110;SDS011;27766;52.174;5.456;2022-11-12T01:05:09;19.88;;;14.38;;
42110;SDS011;27766;52.174;5.456;2022-11-12T01:07:36;20.55;;;13.95;;
42110;SDS011;27766;52.174;5.456;2022-11-12T01:10:03;23.02;;;16.23;;
42110;SDS011;27766;52.174;5.456;2022-11-12T01:12:31;21.98;;;15.45;;
42110;SDS011;27766;52.174;5.456;2022-11-12T01:14:58;18.38;;;14.30;;
42110;SDS011;27766;52.174;5.456;2022-11-12T01:17:25;18.92;;;15.73;;
42110;SDS011;27766;52.174;5.456;2022-11-12T01:19:52;22.58;;;15.27;;
42110;SDS011;27766;52.174;5.456;2022-11-12T01:22:19;23.35;;;15.25;;
42110;SDS011;27766;52.174;5.456;2022-11-12T01:24:46;22.00;;;16.42;;
42110;SDS011;27766;52.174;5.456;2022-11-12T01:27:13;21.17;;;16.90;;
42110;SDS011;27766;52.174;5.456;2022-11-12T01:29:40;21.35;;;16.35;;
42110;SDS011;27766;52.174;5.456;2022-11-12T01:32:07;22.63;;;15.88;;
42110;SDS011;27766;52.174;5.456;2022-11-12T01:34:35;25.83;;;16.70;;
42110;SDS011;27766;52.174;5.456;2022-11-12T01:37:02;21.10;;;15.88;;
42110;SDS011;27766;52.174;5.456;2022-11-12T01:39:29;26.50;;;17.20;;
42110;SDS011;27766;52.174;5.456;2022-11-12T01:41:56;25.58;;;17.05;;
42110;SDS011;27766;52.174;5.456;2022-11-12T01:44:24;20.63;;;16.67;;
42110;SDS011;27766;52.174;5.456;2022-11-12T01:49:50;23.20;;;18.50;;
42110;SDS011;27766;52.174;5.456;2022-11-12T01:52:30;21.73;;;16.92;;
42110;SDS011;27766;52.174;5.456;2022-11-12T01:55:03;20.38;;;17.05;;
42110;SDS011;27766;52.174;5.456;2022-11-12T01:57:36;26.13;;;18.95;;
42110;SDS011;27766;52.174;5.456;2022-11-12T02:00:08;22.98;;;16.85;;
42110;SDS011;27766;52.174;5.456;2022-11-12T02:02:37;23.55;;;17.05;;
42110;SDS011;27766;52.174;5.456;2022-11-12T02:05:06;25.20;;;17.08;;
42110;SDS011;27766;52.174;5.456;2022-11-12T02:07:36;25.10;;;17.90;;
42110;SDS011;27766;52.174;5.456;2022-11-12T02:10:06;22.67;;;18.45;;
42110;SDS011;27766;52.174;5.456;2022-11-12T02:12:35;24.65;;;18.88;;
42110;SDS011;27766;52.174;5.456;2022-11-12T02:15:22;25.08;;;18.30;;
42110;SDS011;27766;52.174;5.456;2022-11-12T02:17:49;21.55;;;17.25;;
42110;SDS011;27766;52.174;5.456;2022-11-12T02:20:16;23.58;;;16.88;;
42110;SDS011;27766;52.174;5.456;2022-11-12T02:22:44;25.25;;;17.70;;
42110;SDS011;27766;52.174;5.456;2022-11-12T02:25:12;19.55;;;17.23;;
42110;SDS011;27766;52.174;5.456;2022-11-12T02:27:43;20.33;;;16.73;;
42110;SDS011;27766;52.174;5.456;2022-11-12T02:30:11;19.08;;;16.30;;
42110;SDS011;27766;52.174;5.456;2022-11-12T02:32:38;30.25;;;17.58;;
42110;SDS011;27766;52.174;5.456;2022-11-12T02:35:05;20.67;;;16.52;;
42110;SDS011;27766;52.174;5.456;2022-11-12T02:37:33;24.40;;;17.38;;
42110;SDS011;27766;52.174;5.456;2022-11-12T02:40:00;25.17;;;17.63;;
42110;SDS011;27766;52.174;5.456;2022-11-12T02:42:27;19.70;;;15.32;;
42110;SDS011;27766;52.174;5.456;2022-11-12T02:44:54;20.80;;;15.75;;
42110;SDS011;27766;52.174;5.456;2022-11-12T02:47:21;18.48;;;14.45;;
42110;SDS011;27766;52.174;5.456;2022-11-12T02:49:48;18.58;;;16.05;;
42110;SDS011;27766;52.174;5.456;2022-11-12T02:52:15;19.52;;;14.93;;
42110;SDS011;27766;52.174;5.456;2022-11-12T02:54:42;22.50;;;15.68;;
42110;SDS011;27766;52.174;5.456;2022-11-12T02:57:09;22.60;;;15.75;;
42110;SDS011;27766;52.174;5.456;2022-11-12T02:59:36;21.48;;;16.10;;
42110;SDS011;27766;52.174;5.456;2022-11-12T03:02:03;23.83;;;16.42;;
42110;SDS011;27766;52.174;5.456;2022-11-12T03:04:30;23.13;;;14.75;;
42110;SDS011;27766;52.174;5.456;2022-11-12T03:06:57;20.98;;;15.45;;
42110;SDS011;27766;52.174;5.456;2022-11-12T03:09:24;18.85;;;15.07;;
42110;SDS011;27766;52.174;5.456;2022-11-12T03:11:51;17.92;;;16.02;;
42110;SDS011;27766;52.174;5.456;2022-11-12T03:14:19;20.25;;;15.63;;
42110;SDS011;27766;52.174;5.456;2022-11-12T03:16:46;19.50;;;16.80;;
42110;SDS011;27766;52.174;5.456;2022-11-12T03:19:13;23.75;;;16.20;;
42110;SDS011;27766;52.174;5.456;2022-11-12T03:21:40;21.00;;;17.27;;
42110;SDS011;27766;52.174;5.456;2022-11-12T03:24:07;22.65;;;16.92;;
42110;SDS011;27766;52.174;5.456;2022-11-12T03:26:34;22.58;;;17.33;;
42110;SDS011;27766;52.174;5.456;2022-11-12T03:29:01;21.52;;;16.67;;
42110;SDS011;27766;52.174;5.456;2022-11-12T03:31:29;20.48;;;16.25;;
42110;SDS011;27766;52.174;5.456;2022-11-12T03:33:56;23.25;;;17.30;;
42110;SDS011;27766;52.174;5.456;2022-11-12T03:36:23;21.70;;;16.83;;
42110;SDS011;27766;52.174;5.456;2022-11-12T03:38:50;20.27;;;17.58;;
42110;SDS011;27766;52.174;5.456;2022-11-12T03:41:17;20.73;;;16.20;;
42110;SDS011;27766;52.174;5.456;2022-11-12T03:43:44;17.48;;;15.38;;
42110;SDS011;27766;52.174;5.456;2022-11-12T03:46:11;18.75;;;15.15;;
42110;SDS011;27766;52.174;5.456;2022-11-12T03:48:39;23.15;;;15.13;;
42110;SDS011;27766;52.174;5.456;2022-11-12T03:51:06;17.77;;;14.27;;
42110;SDS011;27766;52.174;5.456;2022-11-12T03:53:33;18.67;;;15.18;;
42110;SDS011;27766;52.174;5.456;2022-11-12T03:56:00;21.98;;;14.98;;
42110;SDS011;27766;52.174;5.456;2022-11-12T03:58:27;16.65;;;14.88;;
42110;SDS011;27766;52.174;5.456;2022-11-12T04:00:54;16.25;;;13.52;;
42110;SDS011;27766;52.174;5.456;2022-11-12T04:03:21;17.10;;;14.75;;
42110;SDS011;27766;52.174;5.456;2022-11-12T04:05:48;17.77;;;14.55;;
42110;SDS011;27766;52.174;5.456;2022-11-12T04:08:35;17.35;;;13.30;;
42110;SDS011;27766;52.174;5.456;2022-11-12T04:11:03;19.58;;;15.52;;
42110;SDS011;27766;52.174;5.456;2022-11-12T04:13:30;18.15;;;13.88;;
42110;SDS011;27766;52.174;5.456;2022-11-12T04:15:59;22.00;;;13.45;;
42110;SDS011;27766;52.174;5.456;2022-11-12T04:18:47;17.27;;;13.60;;
42110;SDS011;27766;52.174;5.456;2022-11-12T04:21:39;20.73;;;14.15;;
42110;SDS011;27766;52.174;5.456;2022-11-12T04:24:31;21.35;;;14.20;;
42110;SDS011;27766;52.174;5.456;2022-11-12T04:27:26;20.80;;;14.90;;
42110;SDS011;27766;52.174;5.456;2022-11-12T04:29:55;29.23;;;15.50;;
42110;SDS011;27766;52.174;5.456;2022-11-12T04:32:48;20.92;;;14.80;;
42110;SDS011;27766;52.174;5.456;2022-11-12T04:35:16;29.92;;;15.02;;
42110;SDS011;27766;52.174;5.456;2022-11-12T04:37:45;25.40;;;14.80;;
42110;SDS011;27766;52.174;5.456;2022-11-12T04:40:13;20.27;;;14.82;;
42110;SDS011;27766;52.174;5.456;2022-11-12T04:43:00;23.92;;;13.95;;
42110;SDS011;27766;52.174;5.456;2022-11-12T04:45:47;19.52;;;14.40;;
42110;SDS011;27766;52.174;5.456;2022-11-12T04:48:17;21.02;;;14.32;;
42110;SDS011;27766;52.174;5.456;2022-11-12T04:50:46;24.08;;;14.20;;
42110;SDS011;27766;52.174;5.456;2022-11-12T04:53:15;22.30;;;17.08;;
42110;SDS011;27766;52.174;5.456;2022-11-12T04:55:42;22.88;;;14.98;;
42110;SDS011;27766;52.174;5.456;2022-11-12T04:58:09;18.23;;;14.75;;
42110;SDS011;27766;52.174;5.456;2022-11-12T05:00:37;26.50;;;16.02;;
42110;SDS011;27766;52.174;5.456;2022-11-12T05:03:05;21.33;;;15.70;;
42110;SDS011;27766;52.174;5.456;2022-11-12T05:05:32;18.67;;;15.10;;
42110;SDS011;27766;52.174;5.456;2022-11-12T05:08:00;21.80;;;14.23;;
42110;SDS011;27766;52.174;5.456;2022-11-12T05:10:28;22.40;;;14.40;;
42110;SDS011;27766;52.174;5.456;2022-11-12T05:12:55;22.38;;;14.35;;
42110;SDS011;27766;52.174;5.456;2022-11-12T05:15:23;20.05;;;14.95;;
42110;SDS011;27766;52.174;5.456;2022-11-12T05:17:50;20.55;;;15.57;;
42110;SDS011;27766;52.174;5.456;2022-11-12T05:20:17;21.45;;;15.13;;
42110;SDS011;27766;52.174;5.456;2022-11-12T05:22:44;24.20;;;15.07;;
42110;SDS011;27766;52.174;5.456;2022-11-12T05:25:31;20.85;;;15.13;;
42110;SDS011;27766;52.174;5.456;2022-11-12T05:27:59;22.38;;;15.07;;
42110;SDS011;27766;52.174;5.456;2022-11-12T05:30:26;18.65;;;14.93;;
42110;SDS011;27766;52.174;5.456;2022-11-12T05:32:53;23.90;;;15.27;;
42110;SDS011;27766;52.174;5.456;2022-11-12T05:35:20;24.60;;;15.63;;
42110;SDS011;27766;52.174;5.456;2022-11-12T05:37:47;21.42;;;14.77;;
42110;SDS011;27766;52.174;5.456;2022-11-12T05:40:14;23.05;;;15.65;;
42110;SDS011;27766;52.174;5.456;2022-11-12T05:42:41;24.92;;;15.52;;
42110;SDS011;27766;52.174;5.456;2022-11-12T05:45:09;22.60;;;15.05;;
42110;SDS011;27766;52.174;5.456;2022-11-12T05:47:37;22.75;;;16.60;;
42110;SDS011;27766;52.174;5.456;2022-11-12T05:50:06;23.02;;;15.80;;
42110;SDS011;27766;52.174;5.456;2022-11-12T05:52:34;43.22;;;16.73;;
42110;SDS011;27766;52.174;5.456;2022-11-12T05:55:01;31.77;;;16.75;;
42110;SDS011;27766;52.174;5.456;2022-11-12T05:57:28;24.75;;;15.98;;
42110;SDS011;27766;52.174;5.456;2022-11-12T05:59:55;28.70;;;14.57;;
42110;SDS011;27766;52.174;5.456;2022-11-12T06:02:22;27.00;;;17.13;;
42110;SDS011;27766;52.174;5.456;2022-11-12T06:04:49;23.38;;;14.77;;
42110;SDS011;27766;52.174;5.456;2022-11-12T06:07:17;22.52;;;15.70;;
42110;SDS011;27766;52.174;5.456;2022-11-12T06:09:44;23.92;;;15.88;;
42110;SDS011;27766;52.174;5.456;2022-11-12T06:12:11;20.10;;;15.48;;
42110;SDS011;27766;52.174;5.456;2022-11-12T06:14:38;24.02;;;16.67;;
42110;SDS011;27766;52.174;5.456;2022-11-12T06:17:05;18.70;;;14.77;;
42110;SDS011;27766;52.174;5.456;2022-11-12T06:19:38;23.25;;;13.95;;
42110;SDS011;27766;52.174;5.456;2022-11-12T06:22:09;15.77;;;13.30;;
42110;SDS011;27766;52.174;5.456;2022-11-12T06:24:36;20.58;;;14.38;;
42110;SDS011;27766;52.174;5.456;2022-11-12T06:27:03;18.88;;;13.50;;
42110;SDS011;27766;52.174;5.456;2022-11-12T06:29:32;18.40;;;13.23;;
42110;SDS011;27766;52.174;5.456;2022-11-12T06:32:02;19.23;;;13.95;;
42110;SDS011;27766;52.174;5.456;2022-11-12T06:34:29;21.95;;;13.45;;
42110;SDS011;27766;52.174;5.456;2022-11-12T06:36:56;15.00;;;12.63;;
42110;SDS011;27766;52.174;5.456;2022-11-12T06:39:23;18.25;;;13.23;;
42110;SDS011;27766;52.174;5.456;2022-11-12T06:41:50;16.95;;;12.82;;
42110;SDS011;27766;52.174;5.456;2022-11-12T06:44:17;19.80;;;13.45;;
42110;SDS011;27766;52.174;5.456;2022-11-12T06:46:48;15.52;;;12.95;;
42110;SDS011;27766;52.174;5.456;2022-11-12T06:49:16;19.20;;;12.93;;
42110;SDS011;27766;52.174;5.456;2022-11-12T06:51:43;19.27;;;14.05;;
42110;SDS011;27766;52.174;5.456;2022-11-12T06:54:10;18.20;;;13.45;;
42110;SDS011;27766;52.174;5.456;2022-11-12T06:56:37;14.88;;;12.93;;
42110;SDS011;27766;52.174;5.456;2022-11-12T06:59:04;18.73;;;13.63;;
42110;SDS011;27766;52.174;5.456;2022-11-12T07:01:32;19.35;;;12.95;;
42110;SDS011;27766;52.174;5.456;2022-11-12T07:03:59;20.42;;;13.70;;
42110;SDS011;27766;52.174;5.456;2022-11-12T07:06:26;23.48;;;15.82;;
42110;SDS011;27766;52.174;5.456;2022-11-12T07:08:53;19.20;;;14.65;;
42110;SDS011;27766;52.174;5.456;2022-11-12T07:11:20;18.13;;;13.65;;
42110;SDS011;27766;52.174;5.456;2022-11-12T07:13:47;16.42;;;14.50;;
42110;SDS011;27766;52.174;5.456;2022-11-12T07:16:15;21.50;;;14.10;;
42110;SDS011;27766;52.174;5.456;2022-11-12T07:18:44;20.38;;;14.68;;
42110;SDS011;27766;52.174;5.456;2022-11-12T07:21:13;21.60;;;15.30;;
42110;SDS011;27766;52.174;5.456;2022-11-12T07:23:42;18.20;;;14.75;;
42110;SDS011;27766;52.174;5.456;2022-11-12T07:26:20;25.88;;;16.13;;
42110;SDS011;27766;52.174;5.456;2022-11-12T07:28:49;23.75;;;16.23;;
42110;SDS011;27766;52.174;5.456;2022-11-12T07:31:18;27.73;;;17.40;;
42110;SDS011;27766;52.174;5.456;2022-11-12T07:33:46;23.20;;;17.05;;
42110;SDS011;27766;52.174;5.456;2022-11-12T07:36:17;21.23;;;16.23;;
42110;SDS011;27766;52.174;5.456;2022-11-12T07:38:45;23.27;;;17.20;;
42110;SDS011;27766;52.174;5.456;2022-11-12T07:41:16;21.85;;;16.48;;
42110;SDS011;27766;52.174;5.456;2022-11-12T07:43:46;22.52;;;17.85;;
42110;SDS011;27766;52.174;5.456;2022-11-12T07:46:15;25.58;;;17.65;;
42110;SDS011;27766;52.174;5.456;2022-11-12T07:48:45;25.92;;;16.98;;
42110;SDS011;27766;52.174;5.456;2022-11-12T07:51:23;21.63;;;16.40;;
42110;SDS011;27766;52.174;5.456;2022-11-12T07:53:52;20.38;;;15.73;;
42110;SDS011;27766;52.174;5.456;2022-11-12T07:56:25;20.75;;;16.83;;
42110;SDS011;27766;52.174;5.456;2022-11-12T07:58:53;22.70;;;15.82;;
42110;SDS011;27766;52.174;5.456;2022-11-12T08:01:36;24.65;;;16.73;;
42110;SDS011;27766;52.174;5.456;2022-11-12T08:04:08;20.30;;;16.55;;
42110;SDS011;27766;52.174;5.456;2022-11-12T08:06:37;28.13;;;17.15;;
42110;SDS011;27766;52.174;5.456;2022-11-12T08:09:06;26.40;;;17.08;;
42110;SDS011;27766;52.174;5.456;2022-11-12T08:11:36;24.85;;;17.30;;
42110;SDS011;27766;52.174;5.456;2022-11-12T08:14:04;26.13;;;19.35;;
42110;SDS011;27766;52.174;5.456;2022-11-12T08:16:31;26.13;;;18.80;;
42110;SDS011;27766;52.174;5.456;2022-11-12T08:18:59;29.70;;;20.10;;
42110;SDS011;27766;52.174;5.456;2022-11-12T08:21:26;29.08;;;20.67;;
42110;SDS011;27766;52.174;5.456;2022-11-12T08:23:53;27.52;;;17.17;;
42110;SDS011;27766;52.174;5.456;2022-11-12T08:26:20;19.92;;;16.85;;
42110;SDS011;27766;52.174;5.456;2022-11-12T08:28:47;17.98;;;14.52;;
42110;SDS011;27766;52.174;5.456;2022-11-12T08:31:15;17.00;;;14.38;;
42110;SDS011;27766;52.174;5.456;2022-11-12T08:33:48;23.15;;;17.77;;
42110;SDS011;27766;52.174;5.456;2022-11-12T08:36:16;20.02;;;17.13;;
42110;SDS011;27766;52.174;5.456;2022-11-12T08:38:43;21.88;;;15.93;;
42110;SDS011;27766;52.174;5.456;2022-11-12T08:41:11;17.60;;;15.55;;
42110;SDS011;27766;52.174;5.456;2022-11-12T08:43:40;20.25;;;16.38;;
42110;SDS011;27766;52.174;5.456;2022-11-12T08:46:08;19.63;;;15.82;;
42110;SDS011;27766;52.174;5.456;2022-11-12T08:48:35;20.35;;;15.32;;
42110;SDS011;27766;52.174;5.456;2022-11-12T08:51:03;19.23;;;15.77;;
42110;SDS011;27766;52.174;5.456;2022-11-12T08:53:31;22.02;;;14.77;;
42110;SDS011;27766;52.174;5.456;2022-11-12T08:55:58;19.88;;;14.70;;
42110;SDS011;27766;52.174;5.456;2022-11-12T08:58:26;20.48;;;15.10;;
42110;SDS011;27766;52.174;5.456;2022-11-12T09:00:54;20.27;;;15.43;;
42110;SDS011;27766;52.174;5.456;2022-11-12T09:03:22;18.45;;;15.13;;
42110;SDS011;27766;52.174;5.456;2022-11-12T09:05:51;24.27;;;15.65;;
42110;SDS011;27766;52.174;5.456;2022-11-12T09:08:20;19.30;;;16.10;;
42110;SDS011;27766;52.174;5.456;2022-11-12T09:10:50;18.75;;;15.60;;
42110;SDS011;27766;52.174;5.456;2022-11-12T09:13:17;19.58;;;16.40;;
42110;SDS011;27766;52.174;5.456;2022-11-12T09:15:45;22.20;;;16.52;;
42110;SDS011;27766;52.174;5.456;2022-11-12T09:18:14;23.40;;;17.48;;
42110;SDS011;27766;52.174;5.456;2022-11-12T09:20:43;26.17;;;19.77;;
42110;SDS011;27766;52.174;5.456;2022-11-12T09:23:11;23.55;;;19.58;;
42110;SDS011;27766;52.174;5.456;2022-11-12T09:25:40;22.90;;;19.17;;
42110;SDS011;27766;52.174;5.456;2022-11-12T09:28:08;25.95;;;19.67;;
42110;SDS011;27766;52.174;5.456;2022-11-12T09:30:40;24.63;;;18.50;;
42110;SDS011;27766;52.174;5.456;2022-11-12T09:33:30;22.35;;;17.75;;
42110;SDS011;27766;52.174;5.456;2022-11-12T09:36:00;21.35;;;17.92;;
42110;SDS011;27766;52.174;5.456;2022-11-12T09:38:29;21.63;;;16.90;;
42110;SDS011;27766;52.174;5.456;2022-11-12T09:41:16;21.73;;;15.98;;
42110;SDS011;27766;52.174;5.456;2022-11-12T09:43:50;20.92;;;15.88;;
42110;SDS011;27766;52.174;5.456;2022-11-12T09:48:58;22.63;;;16.80;;
42110;SDS011;27766;52.174;5.456;2022-11-12T09:51:32;19.55;;;16.83;;
42110;SDS011;27766;52.174;5.456;2022-11-12T09:54:12;18.45;;;15.63;;
42110;SDS011;27766;52.174;5.456;2022-11-12T09:56:47;21.55;;;15.15;;
42110;SDS011;27766;52.174;5.456;2022-11-12T09:59:19;17.50;;;15.40;;
42110;SDS011;27766;52.174;5.456;2022-11-12T10:02:01;17.73;;;14.98;;
42110;SDS011;27766;52.174;5.456;2022-11-12T10:07:50;20.25;;;15.38;;
42110;SDS011;27766;52.174;5.456;2022-11-12T10:10:46;18.23;;;14.35;;
42110;SDS011;27766;52.174;5.456;2022-11-12T10:16:30;20.85;;;13.82;;
42110;SDS011;27766;52.174;5.456;2022-11-12T10:19:24;15.65;;;13.95;;
42110;SDS011;27766;52.174;5.456;2022-11-12T10:24:25;17.60;;;15.15;;
42110;SDS011;27766;52.174;5.456;2022-11-12T10:26:59;19.25;;;15.23;;
42110;SDS011;27766;52.174;5.456;2022-11-12T10:29:38;16.15;;;14.43;;
42110;SDS011;27766;52.174;5.456;2022-11-12T10:32:27;21.77;;;15.65;;
42110;SDS011;27766;52.174;5.456;2022-11-12T10:34:54;17.42;;;14.45;;
42110;SDS011;27766;52.174;5.456;2022-11-12T10:42:56;17.30;;;13.88;;
42110;SDS011;27766;52.174;5.456;2022-11-12T10:45:25;17.27;;;12.98;;
42110;SDS011;27766;52.174;5.456;2022-11-12T10:47:53;15.60;;;13.20;;
42110;SDS011;27766;52.174;5.456;2022-11-12T10:50:24;13.95;;;12.40;;
42110;SDS011;27766;52.174;5.456;2022-11-12T10:52:58;14.88;;;13.13;;
42110;SDS011;27766;52.174;5.456;2022-11-12T10:55:28;17.15;;;12.75;;
42110;SDS011;27766;52.174;5.456;2022-11-12T11:01:03;15.75;;;12.25;;
42110;SDS011;27766;52.174;5.456;2022-11-12T11:03:44;16.30;;;12.02;;
42110;SDS011;27766;52.174;5.456;2022-11-12T11:11:27;13.43;;;12.02;;
42110;SDS011;27766;52.174;5.456;2022-11-12T11:13:56;17.63;;;12.05;;
42110;SDS011;27766;52.174;5.456;2022-11-12T11:16:47;15.45;;;11.10;;
42110;SDS011;27766;52.174;5.456;2022-11-12T11:19:15;15.27;;;11.07;;
42110;SDS011;27766;52.174;5.456;2022-11-12T11:27:24;13.10;;;10.38;;
42110;SDS011;27766;52.174;5.456;2022-11-12T11:30:28;13.82;;;11.57;;
42110;SDS011;27766;52.174;5.456;2022-11-12T11:38:32;12.63;;;10.45;;
42110;SDS011;27766;52.174;5.456;2022-11-12T12:06:37;13.20;;;8.65;;
42110;SDS011;27766;52.174;5.456;2022-11-12T12:09:47;7.65;;;6.43;;
42110;SDS011;27766;52.174;5.456;2022-11-12T12:18:24;11.38;;;7.93;;
42110;SDS011;27766;52.174;5.456;2022-11-12T12:21:14;7.90;;;7.10;;
42110;SDS011;27766;52.174;5.456;2022-11-12T12:23:44;9.85;;;8.07;;
42110;SDS011;27766;52.174;5.456;2022-11-12T12:31:43;10.52;;;7.47;;
42110;SDS011;27766;52.174;5.456;2022-11-12T12:34:26;9.02;;;7.20;;
42110;SDS011;27766;52.174;5.456;2022-11-12T12:37:02;9.38;;;7.20;;
42110;SDS011;27766;52.174;5.456;2022-11-12T12:39:38;14.60;;;7.20;;
42110;SDS011;27766;52.174;5.456;2022-11-12T12:42:21;8.57;;;7.30;;
42110;SDS011;27766;52.174;5.456;2022-11-12T12:45:09;10.65;;;7.75;;
42110;SDS011;27766;52.174;5.456;2022-11-12T12:47:48;10.77;;;8.18;;
42110;SDS011;27766;52.174;5.456;2022-11-12T12:50:17;11.75;;;6.35;;
42110;SDS011;27766;52.174;5.456;2022-11-12T12:52:59;10.40;;;7.07;;
42110;SDS011;27766;52.174;5.456;2022-11-12T12:58:18;11.20;;;6.85;;
42110;SDS011;27766;52.174;5.456;2022-11-12T13:01:31;14.40;;;7.88;;
42110;SDS011;27766;52.174;5.456;2022-11-12T13:04:00;9.68;;;8.25;;
42110;SDS011;27766;52.174;5.456;2022-11-12T13:09:06;8.90;;;7.75;;
42110;SDS011;27766;52.174;5.456;2022-11-12T13:11:51;10.68;;;8.82;;
42110;SDS011;27766;52.174;5.456;2022-11-12T13:17:02;7.82;;;6.53;;
42110;SDS011;27766;52.174;5.456;2022-11-12T13:19:46;8.80;;;7.28;;
42110;SDS011;27766;52.174;5.456;2022-11-12T13:35:14;10.40;;;8.18;;
42110;SDS011;27766;52.174;5.456;2022-11-12T13:40:40;11.77;;;8.75;;
42110;SDS011;27766;52.174;5.456;2022-11-12T13:43:25;11.85;;;8.25;;
42110;SDS011;27766;52.174;5.456;2022-11-12T13:46:02;10.07;;;6.82;;
42110;SDS011;27766;52.174;5.456;2022-11-12T13:48:35;9.63;;;6.45;;
42110;SDS011;27766;52.174;5.456;2022-11-12T13:51:12;7.70;;;6.18;;
42110;SDS011;27766;52.174;5.456;2022-11-12T13:53:55;9.73;;;6.22;;
42110;SDS011;27766;52.174;5.456;2022-11-12T13:56:24;6.93;;;5.82;;
42110;SDS011;27766;52.174;5.456;2022-11-12T13:58:54;11.05;;;5.85;;
42110;SDS011;27766;52.174;5.456;2022-11-12T14:01:33;7.38;;;5.53;;
42110;SDS011;27766;52.174;5.456;2022-11-12T14:04:00;7.20;;;5.55;;
42110;SDS011;27766;52.174;5.456;2022-11-12T14:06:30;8.10;;;6.20;;
42110;SDS011;27766;52.174;5.456;2022-11-12T14:17:42;9.45;;;6.78;;
42110;SDS011;27766;52.174;5.456;2022-11-12T14:20:25;9.15;;;6.60;;
42110;SDS011;27766;52.174;5.456;2022-11-12T14:23:19;9.20;;;6.97;;
42110;SDS011;27766;52.174;5.456;2022-11-12T14:25:51;13.65;;;7.63;;
42110;SDS011;27766;52.174;5.456;2022-11-12T14:28:30;14.55;;;6.93;;
42110;SDS011;27766;52.174;5.456;2022-11-12T14:30:58;12.50;;;6.93;;
42110;SDS011;27766;52.174;5.456;2022-11-12T14:33:27;9.35;;;6.82;;
42110;SDS011;27766;52.174;5.456;2022-11-12T14:36:02;8.25;;;7.03;;
42110;SDS011;27766;52.174;5.456;2022-11-12T14:38:44;12.77;;;6.50;;
42110;SDS011;27766;52.174;5.456;2022-11-12T14:43:50;10.65;;;6.80;;
42110;SDS011;27766;52.174;5.456;2022-11-12T14:46:48;9.60;;;5.60;;
42110;SDS011;27766;52.174;5.456;2022-11-12T14:49:23;10.43;;;6.03;;
42110;SDS011;27766;52.174;5.456;2022-11-12T14:52:05;9.95;;;6.72;;
42110;SDS011;27766;52.174;5.456;2022-11-12T14:54:45;8.45;;;6.07;;
42110;SDS011;27766;52.174;5.456;2022-11-12T14:57:17;6.78;;;5.97;;
42110;SDS011;27766;52.174;5.456;2022-11-12T14:59:48;11.30;;;6.50;;
42110;SDS011;27766;52.174;5.456;2022-11-12T15:02:18;10.02;;;6.60;;
42110;SDS011;27766;52.174;5.456;2022-11-12T15:05:11;11.27;;;6.70;;
42110;SDS011;27766;52.174;5.456;2022-11-12T15:10:37;9.18;;;6.97;;
42110;SDS011;27766;52.174;5.456;2022-11-12T15:13:20;8.52;;;6.88;;
42110;SDS011;27766;52.174;5.456;2022-11-12T15:15:49;14.90;;;7.85;;
42110;SDS011;27766;52.174;5.456;2022-11-12T15:18:20;9.93;;;8.00;;
42110;SDS011;27766;52.174;5.456;2022-11-12T15:23:44;11.50;;;8.30;;
42110;SDS011;27766;52.174;5.456;2022-11-12T15:26:51;9.35;;;8.32;;
42110;SDS011;27766;52.174;5.456;2022-11-12T15:29:14;16.35;;;8.73;;
42110;SDS011;27766;52.174;5.456;2022-11-12T15:31:51;12.45;;;9.43;;
42110;SDS011;27766;52.174;5.456;2022-11-12T15:39:45;12.80;;;8.00;;
42110;SDS011;27766;52.174;5.456;2022-11-12T15:42:28;10.25;;;7.55;;
42110;SDS011;27766;52.174;5.456;2022-11-12T15:45:00;10.90;;;7.32;;
42110;SDS011;27766;52.174;5.456;2022-11-12T15:47:29;8.10;;;7.20;;
42110;SDS011;27766;52.174;5.456;2022-11-12T15:49:57;11.98;;;8.63;;
42110;SDS011;27766;52.174;5.456;2022-11-12T15:52:24;11.32;;;8.48;;
42110;SDS011;27766;52.174;5.456;2022-11-12T15:54:52;18.80;;;12.45;;
42110;SDS011;27766;52.174;5.456;2022-11-12T15:57:20;13.88;;;9.02;;
42110;SDS011;27766;52.174;5.456;2022-11-12T15:59:57;9.88;;;7.45;;
42110;SDS011;27766;52.174;5.456;2022-11-12T16:02:33;11.98;;;7.75;;
42110;SDS011;27766;52.174;5.456;2022-11-12T16:05:01;8.10;;;7.03;;
42110;SDS011;27766;52.174;5.456;2022-11-12T16:07:28;10.88;;;7.82;;
42110;SDS011;27766;52.174;5.456;2022-11-12T16:09:55;10.43;;;7.68;;
42110;SDS011;27766;52.174;5.456;2022-11-12T16:12:22;8.63;;;7.13;;
42110;SDS011;27766;52.174;5.456;2022-11-12T16:14:49;8.80;;;7.80;;
42110;SDS011;27766;52.174;5.456;2022-11-12T16:17:17;13.70;;;8.27;;
42110;SDS011;27766;52.174;5.456;2022-11-12T16:19:44;13.18;;;8.15;;
42110;SDS011;27766;52.174;5.456;2022-11-12T16:22:11;11.63;;;8.50;;
42110;SDS011;27766;52.174;5.456;2022-11-12T16:24:39;12.05;;;8.02;;
42110;SDS011;27766;52.174;5.456;2022-11-12T16:27:09;14.63;;;8.43;;
42110;SDS011;27766;52.174;5.456;2022-11-12T16:29:39;14.32;;;11.40;;
42110;SDS011;27766;52.174;5.456;2022-11-12T16:32:10;15.52;;;11.18;;
42110;SDS011;27766;52.174;5.456;2022-11-12T16:34:39;16.08;;;12.65;;
42110;SDS011;27766;52.174;5.456;2022-11-12T16:37:09;16.50;;;11.13;;
42110;SDS011;27766;52.174;5.456;2022-11-12T16:39:41;12.60;;;10.30;;
42110;SDS011;27766;52.174;5.456;2022-11-12T16:42:08;15.65;;;10.35;;
42110;SDS011;27766;52.174;5.456;2022-11-12T16:44:36;12.60;;;10.30;;
42110;SDS011;27766;52.174;5.456;2022-11-12T16:47:03;20.70;;;13.05;;
42110;SDS011;27766;52.174;5.456;2022-11-12T16:49:31;27.90;;;16.90;;
42110;SDS011;27766;52.174;5.456;2022-11-12T16:52:04;22.85;;;12.63;;